KSJN/SJN METAR and TAF weather

Enter ICAO airport designator
Station Type Date Time Source
KSJN METAR 2019/06/18 16:54 UTC NOAA

KSJN 181654Z AUTO VRB06KT 10SM CLR 25/M02 A3016 RMK AO2 SLP118 T02501017


Station Type Date Time Source
KSJN Decoded METAR 2019/06/18 16:54 UTC NOAA

ST JOHNS INDUSTRIAL AIRPRK, AZ, United States (KSJN) 34-31N 109-23W 1745M
Jun 18, 2019 - 12:54 PM EDT / 2019.06.18 1654 UTC
Wind: Variable at 7 MPH (6 KT):0
Visibility: 10 mile(s):0
Sky conditions: clear
Temperature: 77.0 F (25.0 C)
Dew Point: 28.9 F (-1.7 C)
Relative Humidity: 17%
Pressure (altimeter): 30.16 in. Hg (1021 hPa)
ob: KSJN 181654Z AUTO VRB06KT 10SM CLR 25/M02 A3016 RMK AO2 SLP118 T02501017
cycle: 17

Station Type Date Time Source
KSJN TAF UTC NOAA

Error!

Example: see airport list